sensor_id;sensor_type;location;lat;lon;timestamp;temperature;humidity
13245;DHT22;6689;53.400;12.486;2024-03-23T00:56:02;9.20;99.90
13245;DHT22;6689;53.400;12.486;2024-03-23T00:58:29;9.20;99.90
13245;DHT22;6689;53.400;12.486;2024-03-23T01:00:56;9.20;99.90
13245;DHT22;6689;53.400;12.486;2024-03-23T01:03:24;9.10;99.90
13245;DHT22;6689;53.400;12.486;2024-03-23T01:05:50;9.10;99.90
13245;DHT22;6689;53.400;12.486;2024-03-23T01:08:18;9.10;99.90
13245;DHT22;6689;53.400;12.486;2024-03-23T01:10:55;9.10;87.20
13245;DHT22;6689;53.400;12.486;2024-03-23T01:13:23;9.10;72.40
13245;DHT22;6689;53.400;12.486;2024-03-23T01:15:50;9.10;72.90
13245;DHT22;6689;53.400;12.486;2024-03-23T01:18:18;9.20;62.50
13245;DHT22;6689;53.400;12.486;2024-03-23T01:20:45;9.10;53.50
13245;DHT22;6689;53.400;12.486;2024-03-23T01:23:12;9.10;59.10
13245;DHT22;6689;53.400;12.486;2024-03-23T01:25:39;9.10;49.10
13245;DHT22;6689;53.400;12.486;2024-03-23T01:28:07;9.10;41.30
13245;DHT22;6689;53.400;12.486;2024-03-23T01:30:37;9.10;45.50
13245;DHT22;6689;53.400;12.486;2024-03-23T01:33:04;9.10;55.50
13245;DHT22;6689;53.400;12.486;2024-03-23T01:35:31;9.10;31.70
13245;DHT22;6689;53.400;12.486;2024-03-23T01:38:01;9.10;23.70
13245;DHT22;6689;53.400;12.486;2024-03-23T01:40:27;9.10;19.00
13245;DHT22;6689;53.400;12.486;2024-03-23T01:43:02;9.10;30.90
13245;DHT22;6689;53.400;12.486;2024-03-23T01:45:31;9.00;22.00
13245;DHT22;6689;53.400;12.486;2024-03-23T01:48:02;9.00;13.90
13245;DHT22;6689;53.400;12.486;2024-03-23T01:50:29;8.90;5.90
13245;DHT22;6689;53.400;12.486;2024-03-23T01:53:00;8.90;15.10
13245;DHT22;6689;53.400;12.486;2024-03-23T01:55:28;8.90;23.50
13245;DHT22;6689;53.400;12.486;2024-03-23T01:57:56;8.90;10.20
13245;DHT22;6689;53.400;12.486;2024-03-23T02:00:26;8.80;1.00
13245;DHT22;6689;53.400;12.486;2024-03-23T02:02:59;8.70;24.30
13245;DHT22;6689;53.400;12.486;2024-03-23T02:05:25;8.70;8.00
13245;DHT22;6689;53.400;12.486;2024-03-23T02:07:53;8.70;34.40
13245;DHT22;6689;53.400;12.486;2024-03-23T02:10:21;8.80;35.20
13245;DHT22;6689;53.400;12.486;2024-03-23T02:12:49;8.70;9.40
13245;DHT22;6689;53.400;12.486;2024-03-23T02:15:15;8.80;31.10
13245;DHT22;6689;53.400;12.486;2024-03-23T02:17:44;8.80;21.60
13245;DHT22;6689;53.400;12.486;2024-03-23T02:20:12;8.70;26.40
13245;DHT22;6689;53.400;12.486;2024-03-23T02:22:40;8.80;21.10
13245;DHT22;6689;53.400;12.486;2024-03-23T02:25:07;8.80;22.20
13245;DHT22;6689;53.400;12.486;2024-03-23T02:27:34;8.80;7.40
13245;DHT22;6689;53.400;12.486;2024-03-23T02:30:01;8.70;14.30
13245;DHT22;6689;53.400;12.486;2024-03-23T02:32:29;8.70;33.40
13245;DHT22;6689;53.400;12.486;2024-03-23T02:34:55;8.70;31.10
13245;DHT22;6689;53.400;12.486;2024-03-23T02:37:23;8.70;23.30
13245;DHT22;6689;53.400;12.486;2024-03-23T02:39:49;8.70;26.80
13245;DHT22;6689;53.400;12.486;2024-03-23T02:42:20;8.70;37.10
13245;DHT22;6689;53.400;12.486;2024-03-23T02:44:46;8.70;20.50
13245;DHT22;6689;53.400;12.486;2024-03-23T02:47:14;8.70;20.00
13245;DHT22;6689;53.400;12.486;2024-03-23T02:49:40;8.70;15.50
13245;DHT22;6689;53.400;12.486;2024-03-23T02:52:08;8.60;1.00
13245;DHT22;6689;53.400;12.486;2024-03-23T02:54:35;8.70;1.00
13245;DHT22;6689;53.400;12.486;2024-03-23T02:57:03;8.70;1.00
13245;DHT22;6689;53.400;12.486;2024-03-23T02:59:31;8.60;1.00
13245;DHT22;6689;53.400;12.486;2024-03-23T03:01:58;8.60;1.00
13245;DHT22;6689;53.400;12.486;2024-03-23T03:04:25;8.60;1.00
13245;DHT22;6689;53.400;12.486;2024-03-23T03:06:53;8.60;1.00
13245;DHT22;6689;53.400;12.486;2024-03-23T03:09:19;8.60;1.00
13245;DHT22;6689;53.400;12.486;2024-03-23T03:11:47;8.60;1.00
13245;DHT22;6689;53.400;12.486;2024-03-23T03:14:14;8.50;1.00
13245;DHT22;6689;53.400;12.486;2024-03-23T03:16:45;8.40;1.00
13245;DHT22;6689;53.400;12.486;2024-03-23T03:19:12;8.50;1.00
13245;DHT22;6689;53.400;12.486;2024-03-23T03:21:40;8.50;1.00
13245;DHT22;6689;53.400;12.486;2024-03-23T03:24:07;8.50;1.00
13245;DHT22;6689;53.400;12.486;2024-03-23T03:26:35;8.50;1.00
13245;DHT22;6689;53.400;12.486;2024-03-23T03:29:01;8.50;1.00
13245;DHT22;6689;53.400;12.486;2024-03-23T03:31:29;8.40;1.00
13245;DHT22;6689;53.400;12.486;2024-03-23T03:33:57;8.50;1.00
13245;DHT22;6689;53.400;12.486;2024-03-23T03:36:24;8.50;1.00
13245;DHT22;6689;53.400;12.486;2024-03-23T03:38:50;8.50;1.00
13245;DHT22;6689;53.400;12.486;2024-03-23T03:41:18;8.30;1.00
13245;DHT22;6689;53.400;12.486;2024-03-23T03:43:45;8.40;1.00
13245;DHT22;6689;53.400;12.486;2024-03-23T03:46:12;8.40;1.00
13245;DHT22;6689;53.400;12.486;2024-03-23T03:48:39;8.20;1.00
13245;DHT22;6689;53.400;12.486;2024-03-23T03:51:08;8.30;1.00
13245;DHT22;6689;53.400;12.486;2024-03-23T03:53:35;8.40;1.00
13245;DHT22;6689;53.400;12.486;2024-03-23T03:56:03;8.40;1.00
13245;DHT22;6689;53.400;12.486;2024-03-23T03:58:30;8.40;1.00
13245;DHT22;6689;53.400;12.486;2024-03-23T04:00:57;8.40;1.00
13245;DHT22;6689;53.400;12.486;2024-03-23T04:03:24;8.40;1.00
13245;DHT22;6689;53.400;12.486;2024-03-23T04:05:52;8.40;1.00
13245;DHT22;6689;53.400;12.486;2024-03-23T04:08:22;8.40;1.00
13245;DHT22;6689;53.400;12.486;2024-03-23T04:10:48;8.40;1.00
13245;DHT22;6689;53.400;12.486;2024-03-23T04:13:15;8.40;1.00
13245;DHT22;6689;53.400;12.486;2024-03-23T04:15:42;8.40;1.00
13245;DHT22;6689;53.400;12.486;2024-03-23T04:18:09;8.40;1.00
13245;DHT22;6689;53.400;12.486;2024-03-23T04:20:36;8.40;1.00
13245;DHT22;6689;53.400;12.486;2024-03-23T04:23:03;8.30;1.00
13245;DHT22;6689;53.400;12.486;2024-03-23T04:25:31;8.20;1.00
13245;DHT22;6689;53.400;12.486;2024-03-23T04:28:01;8.10;1.00
13245;DHT22;6689;53.400;12.486;2024-03-23T04:30:28;8.10;1.00
13245;DHT22;6689;53.400;12.486;2024-03-23T04:32:56;8.10;1.00
13245;DHT22;6689;53.400;12.486;2024-03-23T04:35:24;8.20;1.00
13245;DHT22;6689;53.400;12.486;2024-03-23T04:37:52;8.20;1.00
13245;DHT22;6689;53.400;12.486;2024-03-23T04:40:21;8.20;1.00
13245;DHT22;6689;53.400;12.486;2024-03-23T04:42:50;8.20;1.00
13245;DHT22;6689;53.400;12.486;2024-03-23T04:45:17;8.30;1.00
13245;DHT22;6689;53.400;12.486;2024-03-23T04:47:45;8.30;1.00
13245;DHT22;6689;53.400;12.486;2024-03-23T04:50:14;8.20;1.00
13245;DHT22;6689;53.400;12.486;2024-03-23T04:52:44;8.30;1.00
13245;DHT22;6689;53.400;12.486;2024-03-23T04:55:12;8.30;1.00
13245;DHT22;6689;53.400;12.486;2024-03-23T04:57:40;8.30;1.00
13245;DHT22;6689;53.400;12.486;2024-03-23T05:00:10;8.40;1.00
13245;DHT22;6689;53.400;12.486;2024-03-23T05:02:44;8.40;1.00
13245;DHT22;6689;53.400;12.486;2024-03-23T05:05:12;8.40;1.00
13245;DHT22;6689;53.400;12.486;2024-03-23T05:07:39;8.30;1.00
13245;DHT22;6689;53.400;12.486;2024-03-23T05:10:10;8.30;1.00
13245;DHT22;6689;53.400;12.486;2024-03-23T05:12:37;8.30;1.00
13245;DHT22;6689;53.400;12.486;2024-03-23T05:15:10;8.30;1.00
13245;DHT22;6689;53.400;12.486;2024-03-23T05:17:39;8.30;1.00
13245;DHT22;6689;53.400;12.486;2024-03-23T05:20:08;8.30;1.00
13245;DHT22;6689;53.400;12.486;2024-03-23T05:22:36;8.40;1.00
13245;DHT22;6689;53.400;12.486;2024-03-23T05:25:04;8.10;1.00
13245;DHT22;6689;53.400;12.486;2024-03-23T05:27:31;8.30;1.00
13245;DHT22;6689;53.400;12.486;2024-03-23T05:29:59;8.30;1.00
13245;DHT22;6689;53.400;12.486;2024-03-23T05:32:28;8.30;1.00
13245;DHT22;6689;53.400;12.486;2024-03-23T05:34:57;8.30;1.00
13245;DHT22;6689;53.400;12.486;2024-03-23T05:37:23;8.40;1.00
13245;DHT22;6689;53.400;12.486;2024-03-23T05:39:50;8.40;1.00
13245;DHT22;6689;53.400;12.486;2024-03-23T05:42:17;8.40;1.00
13245;DHT22;6689;53.400;12.486;2024-03-23T05:44:45;8.30;1.00
13245;DHT22;6689;53.400;12.486;2024-03-23T05:47:13;8.40;1.00
13245;DHT22;6689;53.400;12.486;2024-03-23T05:49:43;8.30;1.00
13245;DHT22;6689;53.400;12.486;2024-03-23T05:52:13;8.30;1.00
13245;DHT22;6689;53.400;12.486;2024-03-23T05:54:40;8.30;1.00
13245;DHT22;6689;53.400;12.486;2024-03-23T05:57:09;8.30;1.00
13245;DHT22;6689;53.400;12.486;2024-03-23T05:59:39;8.30;1.00
13245;DHT22;6689;53.400;12.486;2024-03-23T06:02:06;8.30;1.00
13245;DHT22;6689;53.400;12.486;2024-03-23T06:04:36;8.30;1.00
13245;DHT22;6689;53.400;12.486;2024-03-23T06:07:06;8.20;1.00
13245;DHT22;6689;53.400;12.486;2024-03-23T06:09:39;8.10;1.00
13245;DHT22;6689;53.400;12.486;2024-03-23T06:12:06;8.20;1.00
13245;DHT22;6689;53.400;12.486;2024-03-23T06:14:34;8.10;1.00
13245;DHT22;6689;53.400;12.486;2024-03-23T06:17:01;8.10;1.00
13245;DHT22;6689;53.400;12.486;2024-03-23T06:19:30;8.00;1.00
13245;DHT22;6689;53.400;12.486;2024-03-23T06:21:57;8.00;1.00
13245;DHT22;6689;53.400;12.486;2024-03-23T06:24:26;8.10;1.00
13245;DHT22;6689;53.400;12.486;2024-03-23T06:26:52;8.10;1.00
13245;DHT22;6689;53.400;12.486;2024-03-23T06:29:20;8.10;1.00
13245;DHT22;6689;53.400;12.486;2024-03-23T06:31:53;8.10;1.00
13245;DHT22;6689;53.400;12.486;2024-03-23T06:34:22;8.20;1.00
13245;DHT22;6689;53.400;12.486;2024-03-23T06:36:48;8.20;1.00
13245;DHT22;6689;53.400;12.486;2024-03-23T06:39:16;8.20;1.00
13245;DHT22;6689;53.400;12.486;2024-03-23T06:41:51;8.20;1.00
13245;DHT22;6689;53.400;12.486;2024-03-23T06:44:19;8.20;1.00
13245;DHT22;6689;53.400;12.486;2024-03-23T06:46:46;8.10;1.00
13245;DHT22;6689;53.400;12.486;2024-03-23T06:49:15;8.10;1.00
13245;DHT22;6689;53.400;12.486;2024-03-23T06:51:41;8.10;1.00
13245;DHT22;6689;53.400;12.486;2024-03-23T06:54:09;8.20;1.00
13245;DHT22;6689;53.400;12.486;2024-03-23T06:56:35;8.30;1.00
13245;DHT22;6689;53.400;12.486;2024-03-23T06:59:04;8.20;1.00
13245;DHT22;6689;53.400;12.486;2024-03-23T07:01:30;8.20;1.00
13245;DHT22;6689;53.400;12.486;2024-03-23T07:03:57;8.30;1.00
13245;DHT22;6689;53.400;12.486;2024-03-23T07:06:24;8.40;1.00
13245;DHT22;6689;53.400;12.486;2024-03-23T07:08:52;8.40;1.00
13245;DHT22;6689;53.400;12.486;2024-03-23T07:11:19;8.40;1.00
13245;DHT22;6689;53.400;12.486;2024-03-23T07:13:49;8.40;1.00
13245;DHT22;6689;53.400;12.486;2024-03-23T07:16:17;8.40;1.00
13245;DHT22;6689;53.400;12.486;2024-03-23T07:18:44;8.40;1.00
13245;DHT22;6689;53.400;12.486;2024-03-23T07:21:10;8.40;1.00
13245;DHT22;6689;53.400;12.486;2024-03-23T07:23:39;8.40;1.00
13245;DHT22;6689;53.400;12.486;2024-03-23T07:26:12;8.40;1.00
13245;DHT22;6689;53.400;12.486;2024-03-23T07:28:42;8.40;1.00
13245;DHT22;6689;53.400;12.486;2024-03-23T07:31:11;8.30;1.00
13245;DHT22;6689;53.400;12.486;2024-03-23T07:33:44;8.40;1.00
13245;DHT22;6689;53.400;12.486;2024-03-23T07:36:12;8.40;1.00
13245;DHT22;6689;53.400;12.486;2024-03-23T07:38:41;8.40;1.00
13245;DHT22;6689;53.400;12.486;2024-03-23T07:41:09;8.40;1.00
13245;DHT22;6689;53.400;12.486;2024-03-23T07:43:37;8.40;1.00
13245;DHT22;6689;53.400;12.486;2024-03-23T07:46:04;8.40;1.00
13245;DHT22;6689;53.400;12.486;2024-03-23T07:48:34;8.10;1.00
13245;DHT22;6689;53.400;12.486;2024-03-23T07:51:03;8.10;1.00
13245;DHT22;6689;53.400;12.486;2024-03-23T07:53:31;8.20;1.00
13245;DHT22;6689;53.400;12.486;2024-03-23T07:56:03;8.10;1.00
13245;DHT22;6689;53.400;12.486;2024-03-23T07:58:30;8.20;1.00
13245;DHT22;6689;53.400;12.486;2024-03-23T08:01:02;8.20;1.00
13245;DHT22;6689;53.400;12.486;2024-03-23T08:03:30;8.30;1.00
13245;DHT22;6689;53.400;12.486;2024-03-23T08:05:57;8.40;1.00
13245;DHT22;6689;53.400;12.486;2024-03-23T08:08:27;8.30;1.00
13245;DHT22;6689;53.400;12.486;2024-03-23T08:10:53;8.30;1.00
13245;DHT22;6689;53.400;12.486;2024-03-23T08:13:20;8.50;1.00
13245;DHT22;6689;53.400;12.486;2024-03-23T08:15:47;8.50;1.00
13245;DHT22;6689;53.400;12.486;2024-03-23T08:18:14;8.40;1.00
13245;DHT22;6689;53.400;12.486;2024-03-23T08:20:41;8.50;1.00
13245;DHT22;6689;53.400;12.486;2024-03-23T08:23:09;8.60;1.00
13245;DHT22;6689;53.400;12.486;2024-03-23T08:25:37;8.60;1.00
13245;DHT22;6689;53.400;12.486;2024-03-23T08:28:05;8.70;1.00
13245;DHT22;6689;53.400;12.486;2024-03-23T08:30:35;8.70;1.00
13245;DHT22;6689;53.400;12.486;2024-03-23T08:33:03;8.80;1.00
13245;DHT22;6689;53.400;12.486;2024-03-23T08:35:29;8.90;1.00
13245;DHT22;6689;53.400;12.486;2024-03-23T08:37:56;9.10;1.00
13245;DHT22;6689;53.400;12.486;2024-03-23T08:40:24;9.20;1.00
13245;DHT22;6689;53.400;12.486;2024-03-23T08:42:54;9.10;1.00
13245;DHT22;6689;53.400;12.486;2024-03-23T08:45:20;9.40;1.00
13245;DHT22;6689;53.400;12.486;2024-03-23T08:47:47;9.20;99.90
13245;DHT22;6689;53.400;12.486;2024-03-23T08:50:14;9.50;1.00
13245;DHT22;6689;53.400;12.486;2024-03-23T08:52:41;9.50;99.90
13245;DHT22;6689;53.400;12.486;2024-03-23T08:55:08;9.70;1.00
13245;DHT22;6689;53.400;12.486;2024-03-23T08:57:38;9.80;99.90
13245;DHT22;6689;53.400;12.486;2024-03-23T09:00:07;9.60;99.90
13245;DHT22;6689;53.400;12.486;2024-03-23T09:02:40;9.60;99.90
13245;DHT22;6689;53.400;12.486;2024-03-23T09:05:09;9.40;99.90
13245;DHT22;6689;53.400;12.486;2024-03-23T09:07:41;9.50;99.90
13245;DHT22;6689;53.400;12.486;2024-03-23T09:10:07;9.60;99.90
13245;DHT22;6689;53.400;12.486;2024-03-23T09:12:35;9.70;99.90
13245;DHT22;6689;53.400;12.486;2024-03-23T09:15:02;9.80;99.90
13245;DHT22;6689;53.400;12.486;2024-03-23T09:17:31;9.80;99.90
13245;DHT22;6689;53.400;12.486;2024-03-23T09:19:57;9.60;99.90
13245;DHT22;6689;53.400;12.486;2024-03-23T09:22:49;9.40;99.90
13245;DHT22;6689;53.400;12.486;2024-03-23T09:25:17;9.50;99.90
13245;DHT22;6689;53.400;12.486;2024-03-23T09:27:45;9.50;99.90
13245;DHT22;6689;53.400;12.486;2024-03-23T09:30:13;9.30;99.90
13245;DHT22;6689;53.400;12.486;2024-03-23T09:32:43;9.30;99.90
13245;DHT22;6689;53.400;12.486;2024-03-23T09:35:10;9.40;99.90
13245;DHT22;6689;53.400;12.486;2024-03-23T09:37:37;9.60;99.90
13245;DHT22;6689;53.400;12.486;2024-03-23T09:40:09;9.40;99.90
13245;DHT22;6689;53.400;12.486;2024-03-23T09:42:36;9.50;99.90
13245;DHT22;6689;53.400;12.486;2024-03-23T09:45:05;9.50;99.90
13245;DHT22;6689;53.400;12.486;2024-03-23T09:47:33;9.60;99.90
13245;DHT22;6689;53.400;12.486;2024-03-23T09:50:02;9.80;99.90
13245;DHT22;6689;53.400;12.486;2024-03-23T09:52:30;9.90;99.90
13245;DHT22;6689;53.400;12.486;2024-03-23T09:54:58;9.80;99.90
13245;DHT22;6689;53.400;12.486;2024-03-23T09:57:24;9.90;99.90
13245;DHT22;6689;53.400;12.486;2024-03-23T09:59:52;10.00;99.90
13245;DHT22;6689;53.400;12.486;2024-03-23T10:02:20;10.00;99.90
13245;DHT22;6689;53.400;12.486;2024-03-23T10:04:48;10.00;99.90
13245;DHT22;6689;53.400;12.486;2024-03-23T10:07:19;10.00;99.90
13245;DHT22;6689;53.400;12.486;2024-03-23T10:09:47;10.00;99.90
13245;DHT22;6689;53.400;12.486;2024-03-23T10:12:16;10.10;99.90
13245;DHT22;6689;53.400;12.486;2024-03-23T10:14:44;10.00;99.90
13245;DHT22;6689;53.400;12.486;2024-03-23T10:17:13;10.20;99.90
13245;DHT22;6689;53.400;12.486;2024-03-23T10:19:41;10.00;99.90
13245;DHT22;6689;53.400;12.486;2024-03-23T10:22:10;10.20;99.90
13245;DHT22;6689;53.400;12.486;2024-03-23T10:24:39;10.20;99.90
13245;DHT22;6689;53.400;12.486;2024-03-23T10:27:06;10.20;99.90
13245;DHT22;6689;53.400;12.486;2024-03-23T10:29:33;10.30;99.90
13245;DHT22;6689;53.400;12.486;2024-03-23T10:32:09;10.20;99.90
13245;DHT22;6689;53.400;12.486;2024-03-23T10:34:37;10.10;99.90
13245;DHT22;6689;53.400;12.486;2024-03-23T10:37:05;10.20;99.90
13245;DHT22;6689;53.400;12.486;2024-03-23T10:39:33;10.20;99.90
13245;DHT22;6689;53.400;12.486;2024-03-23T10:42:03;10.40;99.90
13245;DHT22;6689;53.400;12.486;2024-03-23T10:44:32;10.50;99.90
13245;DHT22;6689;53.400;12.486;2024-03-23T10:47:00;10.70;99.90
13245;DHT22;6689;53.400;12.486;2024-03-23T10:49:31;10.90;99.90
13245;DHT22;6689;53.400;12.486;2024-03-23T10:52:04;10.90;99.90
13245;DHT22;6689;53.400;12.486;2024-03-23T10:54:32;10.90;99.90
13245;DHT22;6689;53.400;12.486;2024-03-23T10:57:05;10.80;99.90
13245;DHT22;6689;53.400;12.486;2024-03-23T10:59:34;10.80;99.90
13245;DHT22;6689;53.400;12.486;2024-03-23T11:02:00;10.90;99.90
13245;DHT22;6689;53.400;12.486;2024-03-23T11:04:32;11.20;99.90
13245;DHT22;6689;53.400;12.486;2024-03-23T11:06:59;11.50;99.90
13245;DHT22;6689;53.400;12.486;2024-03-23T11:09:44;11.50;99.90
13245;DHT22;6689;53.400;12.486;2024-03-23T11:12:43;11.60;99.90
13245;DHT22;6689;53.400;12.486;2024-03-23T11:15:11;11.60;99.90
13245;DHT22;6689;53.400;12.486;2024-03-23T11:17:38;11.60;99.90
13245;DHT22;6689;53.400;12.486;2024-03-23T11:20:07;11.80;99.90
13245;DHT22;6689;53.400;12.486;2024-03-23T11:22:42;11.90;99.90
13245;DHT22;6689;53.400;12.486;2024-03-23T11:25:14;12.00;99.90
13245;DHT22;6689;53.400;12.486;2024-03-23T11:27:43;12.00;99.90
13245;DHT22;6689;53.400;12.486;2024-03-23T11:30:16;12.10;99.90
13245;DHT22;6689;53.400;12.486;2024-03-23T11:32:43;12.20;99.90
13245;DHT22;6689;53.400;12.486;2024-03-23T11:35:24;12.30;99.90
13245;DHT22;6689;53.400;12.486;2024-03-23T11:38:02;12.30;99.90
13245;DHT22;6689;53.400;12.486;2024-03-23T11:40:30;12.60;99.90
13245;DHT22;6689;53.400;12.486;2024-03-23T11:42:59;12.60;99.90
13245;DHT22;6689;53.400;12.486;2024-03-23T11:45:28;12.40;99.90
13245;DHT22;6689;53.400;12.486;2024-03-23T11:48:06;12.70;99.90
13245;DHT22;6689;53.400;12.486;2024-03-23T11:50:35;12.50;99.90
13245;DHT22;6689;53.400;12.486;2024-03-23T11:53:14;12.40;99.90
13245;DHT22;6689;53.400;12.486;2024-03-23T11:55:48;12.40;99.90
13245;DHT22;6689;53.400;12.486;2024-03-23T11:58:16;11.80;99.90
13245;DHT22;6689;53.400;12.486;2024-03-23T12:00:50;11.90;99.90
13245;DHT22;6689;53.400;12.486;2024-03-23T12:03:17;11.90;99.90
13245;DHT22;6689;53.400;12.486;2024-03-23T12:05:49;11.90;99.90
13245;DHT22;6689;53.400;12.486;2024-03-23T12:08:17;11.70;99.90
13245;DHT22;6689;53.400;12.486;2024-03-23T12:10:49;11.40;99.90
13245;DHT22;6689;53.400;12.486;2024-03-23T12:13:21;11.30;99.90
13245;DHT22;6689;53.400;12.486;2024-03-23T12:15:50;11.30;99.90
13245;DHT22;6689;53.400;12.486;2024-03-23T12:18:16;11.30;99.90
13245;DHT22;6689;53.400;12.486;2024-03-23T12:20:44;11.40;99.90
13245;DHT22;6689;53.400;12.486;2024-03-23T12:23:11;11.50;99.90
13245;DHT22;6689;53.400;12.486;2024-03-23T12:25:39;11.60;99.90
13245;DHT22;6689;53.400;12.486;2024-03-23T12:28:07;11.60;99.90
13245;DHT22;6689;53.400;12.486;2024-03-23T12:30:39;11.70;99.90
13245;DHT22;6689;53.400;12.486;2024-03-23T12:33:06;11.80;99.90
13245;DHT22;6689;53.400;12.486;2024-03-23T12:35:34;12.00;99.90
13245;DHT22;6689;53.400;12.486;2024-03-23T12:38:00;12.30;99.90
13245;DHT22;6689;53.400;12.486;2024-03-23T12:40:28;12.40;99.90
13245;DHT22;6689;53.400;12.486;2024-03-23T12:42:54;12.60;99.90
13245;DHT22;6689;53.400;12.486;2024-03-23T12:45:22;12.60;99.90
13245;DHT22;6689;53.400;12.486;2024-03-23T12:47:50;12.70;99.90
13245;DHT22;6689;53.400;12.486;2024-03-23T12:50:19;12.90;99.90
13245;DHT22;6689;53.400;12.486;2024-03-23T12:52:46;13.00;99.90
13245;DHT22;6689;53.400;12.486;2024-03-23T12:55:13;13.10;99.90
13245;DHT22;6689;53.400;12.486;2024-03-23T12:57:39;13.30;99.90
13245;DHT22;6689;53.400;12.486;2024-03-23T13:00:10;13.30;99.90
13245;DHT22;6689;53.400;12.486;2024-03-23T13:02:37;13.20;99.90
13245;DHT22;6689;53.400;12.486;2024-03-23T13:05:07;13.20;99.90
13245;DHT22;6689;53.400;12.486;2024-03-23T13:07:34;13.20;99.90
13245;DHT22;6689;53.400;12.486;2024-03-23T13:10:04;12.90;99.90
13245;DHT22;6689;53.400;12.486;2024-03-23T13:12:30;13.00;99.90
13245;DHT22;6689;53.400;12.486;2024-03-23T13:14:58;13.10;99.90
13245;DHT22;6689;53.400;12.486;2024-03-23T13:17:25;13.30;99.90
13245;DHT22;6689;53.400;12.486;2024-03-23T13:19:57;13.30;99.90
13245;DHT22;6689;53.400;12.486;2024-03-23T13:22:25;13.40;99.90
13245;DHT22;6689;53.400;12.486;2024-03-23T13:24:52;13.40;99.90
13245;DHT22;6689;53.400;12.486;2024-03-23T13:27:18;13.10;99.90
13245;DHT22;6689;53.400;12.486;2024-03-23T13:29:45;12.90;99.90
13245;DHT22;6689;53.400;12.486;2024-03-23T13:32:12;12.80;99.90
13245;DHT22;6689;53.400;12.486;2024-03-23T13:34:40;12.80;99.90
13245;DHT22;6689;53.400;12.486;2024-03-23T13:37:08;12.70;99.90
13245;DHT22;6689;53.400;12.486;2024-03-23T13:39:37;12.90;99.90
13245;DHT22;6689;53.400;12.486;2024-03-23T13:42:03;13.00;99.90
13245;DHT22;6689;53.400;12.486;2024-03-23T13:44:31;13.20;99.90
13245;DHT22;6689;53.400;12.486;2024-03-23T13:46:57;13.00;99.90
13245;DHT22;6689;53.400;12.486;2024-03-23T13:49:26;13.20;99.90
13245;DHT22;6689;53.400;12.486;2024-03-23T13:51:53;13.30;99.90
13245;DHT22;6689;53.400;12.486;2024-03-23T13:54:20;13.30;99.90
13245;DHT22;6689;53.400;12.486;2024-03-23T13:56:51;13.20;99.90
13245;DHT22;6689;53.400;12.486;2024-03-23T13:59:20;13.20;94.30
13245;DHT22;6689;53.400;12.486;2024-03-23T14:01:47;13.20;90.50
13245;DHT22;6689;53.400;12.486;2024-03-23T14:04:14;13.20;99.90
13245;DHT22;6689;53.400;12.486;2024-03-23T14:06:42;13.20;99.90
13245;DHT22;6689;53.400;12.486;2024-03-23T14:09:11;13.20;98.80
13245;DHT22;6689;53.400;12.486;2024-03-23T14:11:37;13.30;87.50
13245;DHT22;6689;53.400;12.486;2024-03-23T14:14:07;13.00;72.80
13245;DHT22;6689;53.400;12.486;2024-03-23T14:16:34;12.80;80.50
13245;DHT22;6689;53.400;12.486;2024-03-23T14:19:01;12.60;89.50
13245;DHT22;6689;53.400;12.486;2024-03-23T14:21:29;12.50;99.90
13245;DHT22;6689;53.400;12.486;2024-03-23T14:23:56;12.50;95.90
13245;DHT22;6689;53.400;12.486;2024-03-23T14:26:22;12.00;99.90
13245;DHT22;6689;53.400;12.486;2024-03-23T14:28:49;11.50;99.90
13245;DHT22;6689;53.400;12.486;2024-03-23T14:31:17;10.60;99.90
13245;DHT22;6689;53.400;12.486;2024-03-23T14:33:45;10.70;99.90
13245;DHT22;6689;53.400;12.486;2024-03-23T14:36:12;10.50;99.90
13245;DHT22;6689;53.400;12.486;2024-03-23T14:38:40;10.20;99.90
13245;DHT22;6689;53.400;12.486;2024-03-23T14:41:06;10.00;99.90
13245;DHT22;6689;53.400;12.486;2024-03-23T14:43:33;9.70;99.90
13245;DHT22;6689;53.400;12.486;2024-03-23T14:46:09;9.70;99.90
13245;DHT22;6689;53.400;12.486;2024-03-23T14:48:41;9.30;99.90
13245;DHT22;6689;53.400;12.486;2024-03-23T14:51:08;8.90;99.90
13245;DHT22;6689;53.400;12.486;2024-03-23T14:53:36;8.90;99.90
13245;DHT22;6689;53.400;12.486;2024-03-23T14:56:06;8.60;99.90
13245;DHT22;6689;53.400;12.486;2024-03-23T14:58:33;8.70;99.90
13245;DHT22;6689;53.400;12.486;2024-03-23T15:01:02;8.80;99.90
13245;DHT22;6689;53.400;12.486;2024-03-23T15:03:29;9.10;99.90
13245;DHT22;6689;53.400;12.486;2024-03-23T15:05:58;9.20;99.90
13245;DHT22;6689;53.400;12.486;2024-03-23T15:08:27;9.30;99.90
13245;DHT22;6689;53.400;12.486;2024-03-23T15:11:08;9.50;99.90
13245;DHT22;6689;53.400;12.486;2024-03-23T15:13:35;9.60;99.90
13245;DHT22;6689;53.400;12.486;2024-03-23T15:16:03;9.60;99.90
13245;DHT22;6689;53.400;12.486;2024-03-23T15:18:29;9.80;99.90
13245;DHT22;6689;53.400;12.486;2024-03-23T15:20:59;9.80;99.90
13245;DHT22;6689;53.400;12.486;2024-03-23T15:23:28;9.80;99.90
13245;DHT22;6689;53.400;12.486;2024-03-23T15:25:55;9.80;99.90
13245;DHT22;6689;53.400;12.486;2024-03-23T15:28:22;9.90;99.90
13245;DHT22;6689;53.400;12.486;2024-03-23T15:30:50;9.70;99.90
13245;DHT22;6689;53.400;12.486;2024-03-23T15:33:17;9.60;99.90
13245;DHT22;6689;53.400;12.486;2024-03-23T15:35:44;9.60;99.90
13245;DHT22;6689;53.400;12.486;2024-03-23T15:38:12;9.40;99.90
13245;DHT22;6689;53.400;12.486;2024-03-23T15:40:39;9.10;99.90
13245;DHT22;6689;53.400;12.486;2024-03-23T15:43:07;8.50;99.90
13245;DHT22;6689;53.400;12.486;2024-03-23T15:45:34;8.80;99.90
13245;DHT22;6689;53.400;12.486;2024-03-23T15:48:01;8.60;99.90
13245;DHT22;6689;53.400;12.486;2024-03-23T15:50:28;8.60;99.90
13245;DHT22;6689;53.400;12.486;2024-03-23T15:52:55;8.60;99.90
13245;DHT22;6689;53.400;12.486;2024-03-23T15:55:23;8.50;99.90
13245;DHT22;6689;53.400;12.486;2024-03-23T15:57:49;8.30;99.90
13245;DHT22;6689;53.400;12.486;2024-03-23T16:00:18;8.00;99.90
13245;DHT22;6689;53.400;12.486;2024-03-23T16:02:44;8.10;99.90
13245;DHT22;6689;53.400;12.486;2024-03-23T16:05:12;7.60;99.90
13245;DHT22;6689;53.400;12.486;2024-03-23T16:07:44;7.60;99.90
13245;DHT22;6689;53.400;12.486;2024-03-23T16:10:11;7.60;99.90
13245;DHT22;6689;53.400;12.486;2024-03-23T16:12:40;7.70;99.90
13245;DHT22;6689;53.400;12.486;2024-03-23T16:15:09;7.40;99.90
13245;DHT22;6689;53.400;12.486;2024-03-23T16:17:35;7.30;99.90
13245;DHT22;6689;53.400;12.486;2024-03-23T16:20:04;7.00;99.90
13245;DHT22;6689;53.400;12.486;2024-03-23T16:22:35;6.60;99.90
13245;DHT22;6689;53.400;12.486;2024-03-23T16:25:04;6.60;99.90
13245;DHT22;6689;53.400;12.486;2024-03-23T16:27:32;6.70;1.00
13245;DHT22;6689;53.400;12.486;2024-03-23T16:30:15;6.90;99.90
13245;DHT22;6689;53.400;12.486;2024-03-23T16:32:42;7.10;99.90
13245;DHT22;6689;53.400;12.486;2024-03-23T16:35:09;7.20;99.90
13245;DHT22;6689;53.400;12.486;2024-03-23T16:37:35;7.30;99.90
13245;DHT22;6689;53.400;12.486;2024-03-23T16:40:04;7.50;99.90
13245;DHT22;6689;53.400;12.486;2024-03-23T16:42:32;7.60;99.90
13245;DHT22;6689;53.400;12.486;2024-03-23T16:44:59;7.70;99.90
13245;DHT22;6689;53.400;12.486;2024-03-23T16:47:28;7.80;99.90
13245;DHT22;6689;53.400;12.486;2024-03-23T16:49:55;7.90;99.90